NJE231 LIRJ-LICJ
Flight info
| Callsign | NJE231 |
|---|---|
| Flight time | 0h 49m |
| Altitude | 29000 |
| Route | ELB L12 GIANO |
| Aircraft | C750/M-SBDE3FGHRWXY/S |
Departure
| Time | 2026-05-07 10:40 |
|---|---|
| Airport | Marina di Campo Airport (LIRJ) |
Arrival
| Time | 2026-05-07 11:30 |
|---|---|
| Airport | Falcone–Borsellino Airport (LICJ) |
| Time | Latitude | Longitude | Altitude | Speed | Heading |
|---|---|---|---|---|---|
| 2026-05-07 10:29 | 42.76297 | 10.23776 | 15 ft | 0 kts | 252° |
| 2026-05-07 10:31 | 42.76297 | 10.23777 | 15 ft | 0 kts | 252° |
| 2026-05-07 10:37 | 42.76298 | 10.23775 | 15 ft | 0 kts | 279° |
| 2026-05-07 10:37 | 42.76301 | 10.23775 | 15 ft | 0 kts | 331° |
| 2026-05-07 10:37 | 42.76308 | 10.23778 | 16 ft | 4 kts | 17° |
| 2026-05-07 10:38 | 42.76333 | 10.23802 | 16 ft | 4 kts | 53° |
| 2026-05-07 10:38 | 42.76344 | 10.23838 | 16 ft | 6 kts | 69° |
| 2026-05-07 10:38 | 42.76393 | 10.23848 | 17 ft | 12 kts | 341° |
| 2026-05-07 10:38 | 42.76499 | 10.23800 | 17 ft | 17 kts | 342° |
| 2026-05-07 10:39 | 42.76592 | 10.23760 | 15 ft | 12 kts | 347° |
| 2026-05-07 10:39 | 42.76638 | 10.23754 | 15 ft | 5 kts | 315° |
| 2026-05-07 10:39 | 42.76627 | 10.23740 | 15 ft | 3 kts | 174° |
| 2026-05-07 10:39 | 42.76620 | 10.23743 | 15 ft | 3 kts | 161° |
| 2026-05-07 10:40 | 42.76480 | 10.23808 | 19 ft | 69 kts | 161° |
| 2026-05-07 10:40 | 42.75700 | 10.24158 | 113 ft | 142 kts | 161° |
| 2026-05-07 10:40 | 42.74789 | 10.24552 | 1058 ft | 131 kts | 163° |
| 2026-05-07 10:40 | 42.74012 | 10.24983 | 2088 ft | 113 kts | 157° |
| 2026-05-07 10:41 | 42.73278 | 10.25540 | 2718 ft | 132 kts | 155° |
| 2026-05-07 10:41 | 42.72387 | 10.26202 | 3097 ft | 160 kts | 155° |
| 2026-05-07 10:41 | 42.71319 | 10.27004 | 3454 ft | 190 kts | 154° |
| 2026-05-07 10:41 | 42.70081 | 10.27940 | 3926 ft | 220 kts | 154° |
| 2026-05-07 10:42 | 42.68667 | 10.29009 | 4568 ft | 245 kts | 154° |
| 2026-05-07 10:42 | 42.67106 | 10.30187 | 5250 ft | 265 kts | 154° |
| 2026-05-07 10:42 | 42.65491 | 10.31409 | 6303 ft | 267 kts | 154° |
| 2026-05-07 10:42 | 42.63848 | 10.32647 | 7214 ft | 274 kts | 154° |
| 2026-05-07 10:43 | 42.62168 | 10.33911 | 8298 ft | 277 kts | 154° |
| 2026-05-07 10:43 | 42.60467 | 10.35190 | 9402 ft | 281 kts | 155° |
| 2026-05-07 10:43 | 42.58740 | 10.36488 | 10299 ft | 288 kts | 155° |
| 2026-05-07 10:43 | 42.56908 | 10.37856 | 10624 ft | 314 kts | 155° |
| 2026-05-07 10:44 | 42.54913 | 10.39348 | 10762 ft | 341 kts | 155° |
| 2026-05-07 10:44 | 42.52785 | 10.40955 | 11329 ft | 350 kts | 155° |
| 2026-05-07 10:44 | 42.50656 | 10.42564 | 12200 ft | 352 kts | 155° |
| 2026-05-07 10:44 | 42.48497 | 10.44176 | 12931 ft | 356 kts | 156° |
| 2026-05-07 10:45 | 42.46312 | 10.45803 | 13680 ft | 361 kts | 156° |
| 2026-05-07 10:45 | 42.44105 | 10.47456 | 14373 ft | 364 kts | 156° |
| 2026-05-07 10:45 | 42.41908 | 10.49102 | 15032 ft | 367 kts | 156° |
| 2026-05-07 10:45 | 42.39663 | 10.50776 | 15691 ft | 371 kts | 156° |
| 2026-05-07 10:46 | 42.37389 | 10.52471 | 16363 ft | 375 kts | 156° |
| 2026-05-07 10:46 | 42.35093 | 10.54183 | 17057 ft | 379 kts | 156° |
| 2026-05-07 10:46 | 42.32772 | 10.55912 | 17774 ft | 383 kts | 156° |
| 2026-05-07 10:46 | 42.30430 | 10.57654 | 18483 ft | 387 kts | 156° |
| 2026-05-07 10:47 | 42.28065 | 10.59413 | 19150 ft | 390 kts | 156° |
| 2026-05-07 10:47 | 42.25675 | 10.61188 | 19839 ft | 393 kts | 156° |
| 2026-05-07 10:47 | 42.23268 | 10.62975 | 20541 ft | 397 kts | 157° |
| 2026-05-07 10:47 | 42.20837 | 10.64777 | 21233 ft | 401 kts | 157° |
| 2026-05-07 10:48 | 42.18381 | 10.66596 | 21913 ft | 405 kts | 157° |
| 2026-05-07 10:48 | 42.15897 | 10.68435 | 22589 ft | 409 kts | 158° |
| 2026-05-07 10:48 | 42.13390 | 10.70289 | 23255 ft | 413 kts | 158° |
| 2026-05-07 10:48 | 42.10853 | 10.72162 | 23859 ft | 417 kts | 158° |
| 2026-05-07 10:49 | 42.08298 | 10.74049 | 24409 ft | 420 kts | 158° |
| 2026-05-07 10:49 | 42.05722 | 10.75939 | 24959 ft | 423 kts | 159° |
| 2026-05-07 10:49 | 42.03030 | 10.77507 | 25449 ft | 421 kts | 166° |
| 2026-05-07 10:49 | 42.00293 | 10.78935 | 26017 ft | 424 kts | 165° |
| 2026-05-07 10:50 | 41.97575 | 10.80409 | 26560 ft | 428 kts | 165° |
| 2026-05-07 10:50 | 41.94806 | 10.81913 | 27100 ft | 431 kts | 165° |
| 2026-05-07 10:50 | 41.92006 | 10.83396 | 27663 ft | 434 kts | 165° |
| 2026-05-07 10:50 | 41.89181 | 10.84885 | 28209 ft | 437 kts | 166° |
| 2026-05-07 10:51 | 41.86342 | 10.86400 | 28773 ft | 440 kts | 165° |
| 2026-05-07 10:51 | 41.83469 | 10.87936 | 28990 ft | 451 kts | 165° |
| 2026-05-07 10:51 | 41.80502 | 10.89502 | 28992 ft | 465 kts | 165° |
| 2026-05-07 10:51 | 41.77447 | 10.91118 | 29000 ft | 479 kts | 165° |
| 2026-05-07 10:52 | 41.74305 | 10.92791 | 29006 ft | 490 kts | 165° |
| 2026-05-07 10:52 | 41.71122 | 10.94489 | 29003 ft | 495 kts | 165° |
| 2026-05-07 10:52 | 41.64690 | 10.97889 | 28997 ft | 498 kts | 165° |
| 2026-05-07 10:53 | 41.58236 | 11.01298 | 28997 ft | 499 kts | 165° |
| 2026-05-07 10:53 | 41.51776 | 11.04697 | 28991 ft | 499 kts | 165° |
| 2026-05-07 10:54 | 41.45311 | 11.08094 | 28980 ft | 500 kts | 164° |
| 2026-05-07 10:54 | 41.38833 | 11.11493 | 28982 ft | 500 kts | 164° |
| 2026-05-07 10:55 | 41.32352 | 11.14884 | 28984 ft | 500 kts | 164° |
| 2026-05-07 10:55 | 41.25869 | 11.18270 | 28984 ft | 501 kts | 164° |
| 2026-05-07 10:56 | 41.19389 | 11.21647 | 28983 ft | 500 kts | 164° |
| 2026-05-07 10:56 | 41.12904 | 11.25019 | 28980 ft | 500 kts | 164° |
| 2026-05-07 10:57 | 41.06428 | 11.28379 | 28979 ft | 499 kts | 164° |
| 2026-05-07 10:57 | 40.99960 | 11.31729 | 28983 ft | 499 kts | 163° |
| 2026-05-07 10:58 | 40.93544 | 11.35045 | 28980 ft | 498 kts | 163° |
| 2026-05-07 10:58 | 40.87093 | 11.38371 | 28980 ft | 498 kts | 163° |
| 2026-05-07 10:59 | 40.80636 | 11.41694 | 28980 ft | 498 kts | 163° |
| 2026-05-07 10:59 | 40.74175 | 11.45014 | 28978 ft | 499 kts | 163° |
| 2026-05-07 11:00 | 40.67697 | 11.48334 | 28983 ft | 500 kts | 163° |
| 2026-05-07 11:00 | 40.61205 | 11.51655 | 28981 ft | 501 kts | 163° |
| 2026-05-07 11:01 | 40.54698 | 11.54977 | 28979 ft | 502 kts | 163° |
| 2026-05-07 11:01 | 40.48178 | 11.58298 | 28981 ft | 503 kts | 163° |
| 2026-05-07 11:02 | 40.41636 | 11.61624 | 28979 ft | 504 kts | 164° |
| 2026-05-07 11:02 | 40.35085 | 11.64946 | 28978 ft | 505 kts | 164° |
| 2026-05-07 11:03 | 40.28519 | 11.68261 | 28972 ft | 506 kts | 164° |
| 2026-05-07 11:03 | 40.21948 | 11.71576 | 28972 ft | 507 kts | 164° |
| 2026-05-07 11:04 | 40.15359 | 11.74891 | 28984 ft | 507 kts | 165° |
| 2026-05-07 11:04 | 40.08787 | 11.78189 | 28972 ft | 507 kts | 165° |
| 2026-05-07 11:05 | 40.02192 | 11.81500 | 28978 ft | 508 kts | 165° |
| 2026-05-07 11:05 | 39.95583 | 11.84813 | 28968 ft | 509 kts | 165° |
| 2026-05-07 11:06 | 39.89011 | 11.88099 | 28964 ft | 509 kts | 165° |
| 2026-05-07 11:06 | 39.82447 | 11.91666 | 28960 ft | 512 kts | 162° |
| 2026-05-07 11:07 | 39.75918 | 11.95357 | 28957 ft | 512 kts | 162° |
| 2026-05-07 11:07 | 39.69329 | 11.99050 | 28953 ft | 512 kts | 162° |
| 2026-05-07 11:08 | 39.62784 | 12.02732 | 28954 ft | 513 kts | 162° |
| 2026-05-07 11:08 | 39.56269 | 12.06373 | 28948 ft | 513 kts | 162° |
| 2026-05-07 11:09 | 39.49716 | 12.10041 | 28954 ft | 513 kts | 162° |
| 2026-05-07 11:09 | 39.43165 | 12.13690 | 28946 ft | 509 kts | 162° |
| 2026-05-07 11:10 | 39.40032 | 12.15448 | 28639 ft | 474 kts | 162° |
| 2026-05-07 11:10 | 39.37093 | 12.17090 | 27918 ft | 449 kts | 163° |
| 2026-05-07 11:10 | 39.34207 | 12.18676 | 26567 ft | 442 kts | 163° |
| 2026-05-07 11:10 | 39.31399 | 12.20218 | 25383 ft | 435 kts | 162° |
| 2026-05-07 11:11 | 39.28685 | 12.21733 | 24275 ft | 427 kts | 162° |
| 2026-05-07 11:11 | 39.25981 | 12.23243 | 23090 ft | 420 kts | 162° |
| 2026-05-07 11:11 | 39.23320 | 12.24713 | 21890 ft | 412 kts | 162° |
| 2026-05-07 11:11 | 39.20708 | 12.26153 | 20758 ft | 405 kts | 161° |
| 2026-05-07 11:12 | 39.18184 | 12.27553 | 20494 ft | 391 kts | 161° |
| 2026-05-07 11:12 | 39.15645 | 12.28954 | 20142 ft | 396 kts | 161° |
| 2026-05-07 11:12 | 39.13112 | 12.30350 | 19734 ft | 395 kts | 161° |
| 2026-05-07 11:12 | 39.10592 | 12.31741 | 19320 ft | 394 kts | 161° |
| 2026-05-07 11:13 | 39.08083 | 12.33126 | 18900 ft | 391 kts | 161° |
| 2026-05-07 11:13 | 39.05584 | 12.34502 | 18495 ft | 390 kts | 161° |
| 2026-05-07 11:13 | 39.03099 | 12.35869 | 18065 ft | 387 kts | 161° |
| 2026-05-07 11:13 | 39.00631 | 12.37227 | 17647 ft | 385 kts | 161° |
| 2026-05-07 11:14 | 38.98176 | 12.38576 | 17241 ft | 383 kts | 161° |
| 2026-05-07 11:14 | 38.95732 | 12.39919 | 16842 ft | 380 kts | 161° |
| 2026-05-07 11:14 | 38.93309 | 12.41248 | 16449 ft | 378 kts | 161° |
| 2026-05-07 11:14 | 38.90896 | 12.42572 | 16048 ft | 376 kts | 161° |
| 2026-05-07 11:15 | 38.88494 | 12.43888 | 15662 ft | 374 kts | 161° |
| 2026-05-07 11:15 | 38.86121 | 12.45234 | 15262 ft | 373 kts | 158° |
| 2026-05-07 11:15 | 38.84573 | 12.46191 | 15009 ft | 372 kts | 158° |
| 2026-05-07 11:15 | 38.82240 | 12.47589 | 14622 ft | 369 kts | 159° |
| 2026-05-07 11:16 | 38.79914 | 12.48963 | 14238 ft | 367 kts | 158° |
| 2026-05-07 11:16 | 38.77605 | 12.50353 | 13851 ft | 365 kts | 158° |
| 2026-05-07 11:16 | 38.74573 | 12.52190 | 13314 ft | 362 kts | 158° |
| 2026-05-07 11:16 | 38.72297 | 12.53554 | 12928 ft | 360 kts | 158° |
| 2026-05-07 11:17 | 38.70764 | 12.54470 | 12680 ft | 358 kts | 158° |
| 2026-05-07 11:17 | 38.68515 | 12.55818 | 12306 ft | 356 kts | 157° |
| 2026-05-07 11:17 | 38.66276 | 12.57163 | 11929 ft | 354 kts | 157° |
| 2026-05-07 11:17 | 38.64053 | 12.58496 | 11563 ft | 352 kts | 157° |
| 2026-05-07 11:18 | 38.61841 | 12.59818 | 11187 ft | 350 kts | 157° |
| 2026-05-07 11:18 | 38.59672 | 12.61114 | 10828 ft | 333 kts | 157° |
| 2026-05-07 11:18 | 38.57642 | 12.62328 | 10481 ft | 312 kts | 157° |
| 2026-05-07 11:18 | 38.55738 | 12.63463 | 10259 ft | 290 kts | 157° |
| 2026-05-07 11:19 | 38.53946 | 12.64530 | 9726 ft | 283 kts | 156° |
| 2026-05-07 11:19 | 38.52141 | 12.65603 | 9190 ft | 288 kts | 156° |
| 2026-05-07 11:19 | 38.50350 | 12.66673 | 9055 ft | 282 kts | 156° |
| 2026-05-07 11:19 | 38.48583 | 12.67727 | 8928 ft | 281 kts | 156° |
| 2026-05-07 11:20 | 38.46813 | 12.68780 | 8805 ft | 280 kts | 156° |
| 2026-05-07 11:20 | 38.45068 | 12.69819 | 8683 ft | 280 kts | 156° |
| 2026-05-07 11:20 | 38.43303 | 12.70869 | 8558 ft | 279 kts | 156° |
| 2026-05-07 11:20 | 38.41544 | 12.71915 | 8445 ft | 278 kts | 156° |
| 2026-05-07 11:21 | 38.39778 | 12.72964 | 8151 ft | 281 kts | 156° |
| 2026-05-07 11:21 | 38.38016 | 12.74010 | 7785 ft | 278 kts | 156° |
| 2026-05-07 11:21 | 38.36271 | 12.75047 | 7415 ft | 275 kts | 156° |
| 2026-05-07 11:21 | 38.34544 | 12.76071 | 7052 ft | 273 kts | 155° |
| 2026-05-07 11:22 | 38.32828 | 12.77089 | 6690 ft | 272 kts | 155° |
| 2026-05-07 11:22 | 38.31119 | 12.78101 | 6332 ft | 270 kts | 155° |
| 2026-05-07 11:22 | 38.29422 | 12.79107 | 5959 ft | 268 kts | 155° |
| 2026-05-07 11:22 | 38.27733 | 12.80108 | 5605 ft | 266 kts | 155° |
| 2026-05-07 11:23 | 38.26056 | 12.81099 | 5251 ft | 264 kts | 155° |
| 2026-05-07 11:23 | 38.24386 | 12.82058 | 4892 ft | 259 kts | 158° |
| 2026-05-07 11:23 | 38.22765 | 12.82892 | 4649 ft | 245 kts | 157° |
| 2026-05-07 11:23 | 38.21253 | 12.83759 | 4402 ft | 232 kts | 156° |
| 2026-05-07 11:24 | 38.19805 | 12.84563 | 4165 ft | 222 kts | 157° |
| 2026-05-07 11:24 | 38.18414 | 12.85308 | 3953 ft | 212 kts | 158° |
| 2026-05-07 11:24 | 38.17081 | 12.86026 | 3743 ft | 204 kts | 157° |
| 2026-05-07 11:24 | 38.15799 | 12.86721 | 3561 ft | 196 kts | 157° |
| 2026-05-07 11:25 | 38.14588 | 12.87376 | 3395 ft | 189 kts | 157° |
| 2026-05-07 11:25 | 38.13385 | 12.88027 | 3212 ft | 186 kts | 157° |
| 2026-05-07 11:25 | 38.12324 | 12.88933 | 2985 ft | 187 kts | 133° |
| 2026-05-07 11:25 | 38.11757 | 12.90412 | 2821 ft | 189 kts | 104° |
| 2026-05-07 11:26 | 38.11842 | 12.92093 | 2638 ft | 197 kts | 76° |
| 2026-05-07 11:26 | 38.12378 | 12.93680 | 2492 ft | 196 kts | 69° |
| 2026-05-07 11:26 | 38.12929 | 12.95287 | 2228 ft | 196 kts | 69° |
| 2026-05-07 11:26 | 38.13459 | 12.96867 | 1960 ft | 196 kts | 70° |
| 2026-05-07 11:27 | 38.13997 | 12.98461 | 1684 ft | 189 kts | 69° |
| 2026-05-07 11:27 | 38.14494 | 12.99927 | 1428 ft | 174 kts | 70° |
| 2026-05-07 11:27 | 38.14965 | 13.01323 | 1212 ft | 164 kts | 69° |
| 2026-05-07 11:27 | 38.15378 | 13.02545 | 1001 ft | 138 kts | 69° |
| 2026-05-07 11:28 | 38.15732 | 13.03598 | 845 ft | 125 kts | 68° |
| 2026-05-07 11:28 | 38.16069 | 13.04597 | 724 ft | 122 kts | 66° |
| 2026-05-07 11:28 | 38.16407 | 13.05581 | 608 ft | 121 kts | 66° |
| 2026-05-07 11:28 | 38.16740 | 13.06564 | 455 ft | 120 kts | 65° |
| 2026-05-07 11:29 | 38.17061 | 13.07519 | 312 ft | 120 kts | 65° |
| 2026-05-07 11:29 | 38.17388 | 13.08501 | 183 ft | 121 kts | 65° |
| 2026-05-07 11:29 | 38.17703 | 13.09458 | 72 ft | 108 kts | 65° |
| 2026-05-07 11:29 | 38.17960 | 13.10223 | 63 ft | 78 kts | 66° |
| 2026-05-07 11:30 | 38.18100 | 13.10643 | 65 ft | 27 kts | 66° |
| 2026-05-07 11:30 | 38.18152 | 13.10722 | 65 ft | 9 kts | 342° |
| 2026-05-07 11:30 | 38.18175 | 13.10658 | 66 ft | 8 kts | 276° |
| 2026-05-07 11:30 | 38.18182 | 13.10576 | 64 ft | 10 kts | 276° |
| 2026-05-07 11:31 | 38.18190 | 13.10486 | 56 ft | 11 kts | 276° |
| 2026-05-07 11:31 | 38.18209 | 13.10402 | 60 ft | 9 kts | 303° |
| 2026-05-07 11:31 | 38.18255 | 13.10363 | 62 ft | 8 kts | 338° |
| 2026-05-07 11:31 | 38.18298 | 13.10379 | 59 ft | 6 kts | 54° |
| 2026-05-07 11:32 | 38.18336 | 13.10474 | 57 ft | 5 kts | 23° |
| 2026-05-07 11:32 | 38.18383 | 13.10499 | 62 ft | 8 kts | 22° |
| 2026-05-07 11:32 | 38.18435 | 13.10526 | 62 ft | 9 kts | 27° |
| 2026-05-07 11:33 | 38.18443 | 13.10563 | 62 ft | 4 kts | 139° |
| 2026-05-07 11:33 | 38.18413 | 13.10579 | 62 ft | 6 kts | 157° |
| 2026-05-07 11:33 | 38.18379 | 13.10598 | 58 ft | 0 kts | 155° |